Time;durP1;ratioP1;P1;durP2;ratioP2;P2;SDS_P1;SDS_P2;PMS_P1;PMS_P2;Temp;Humidity;BMP_temperature;BMP_pressure;BME280_temperature;BME280_humidity;BME280_pressure;Samples;Min_cycle;Max_cycle;Signal;HPM_P1;HPM_P2
2022/09/20 00:01:09;;;;;;;7.72;6.93;;;;;;;;;;6245588;22;20077;-75
2022/09/20 00:03:37;;;;;;;0.28;0.28;;;;;;;;;;6243869;23;20079;-76
2022/09/20 00:06:04;;;;;;;0.00;0.00;;;;;;;;;;6243950;23;20284;-76
2022/09/20 00:08:31;;;;;;;0.00;0.00;;;;;;;;;;6245600;22;20004;-76
2022/09/20 00:11:00;;;;;;;0.00;0.00;;;;;;;;;;6245703;23;20034;-75
2022/09/20 00:13:26;;;;;;;0.00;0.00;;;;;;;;;;6244076;23;20032;-75
2022/09/20 00:15:53;;;;;;;1.88;1.77;;;;;;;;;;6244981;23;20000;-76
2022/09/20 00:18:20;;;;;;;0.00;0.00;;;;;;;;;;6245380;23;20432;-76
2022/09/20 00:20:46;;;;;;;0.00;0.00;;;;;;;;;;6245247;22;20118;-76
2022/09/20 00:23:13;;;;;;;0.30;0.30;;;;;;;;;;6245408;23;20000;-76
2022/09/20 00:25:39;;;;;;;0.00;0.00;;;;;;;;;;6245321;23;20011;-76
2022/09/20 00:28:06;;;;;;;0.45;0.45;;;;;;;;;;6245798;23;20039;-75
2022/09/20 00:30:33;;;;;;;0.00;0.00;;;;;;;;;;6243554;23;20142;-75
2022/09/20 00:33:00;;;;;;;0.00;0.00;;;;;;;;;;6245173;23;20076;-76
2022/09/20 00:35:28;;;;;;;0.00;0.00;;;;;;;;;;6245093;23;20432;-75
2022/09/20 00:37:54;;;;;;;0.00;0.00;;;;;;;;;;6243681;23;20005;-75
2022/09/20 00:40:22;;;;;;;1.95;1.90;;;;;;;;;;6245151;23;20000;-76
2022/09/20 00:42:49;;;;;;;0.00;0.00;;;;;;;;;;6245096;23;20307;-75
2022/09/20 00:45:29;;;;;;;0.00;0.00;;;;;;;;;;6242894;23;20083;-75
2022/09/20 00:47:59;;;;;;;0.00;0.00;;;;;;;;;;6242990;23;20008;-75
2022/09/20 00:50:32;;;;;;;0.00;0.00;;;;;;;;;;6241583;23;20008;-76
2022/09/20 00:53:19;;;;;;;104.32;89.18;;;;;;;;;;6245170;23;20424;-76
2022/09/20 00:55:54;;;;;;;0.00;0.00;;;;;;;;;;6243285;23;20008;-76
2022/09/20 00:58:21;;;;;;;0.65;0.30;;;;;;;;;;6243024;22;20024;-76
2022/09/20 01:00:48;;;;;;;0.00;0.00;;;;;;;;;;6243241;23;20015;-74
2022/09/20 01:03:17;;;;;;;0.00;0.00;;;;;;;;;;6243335;23;20008;-75
2022/09/20 01:05:43;;;;;;;0.00;0.00;;;;;;;;;;6245114;23;20360;-75
2022/09/20 01:08:10;;;;;;;0.00;0.00;;;;;;;;;;6245471;23;19996;-77
2022/09/20 01:10:37;;;;;;;0.00;0.00;;;;;;;;;;6244978;23;20477;-76
2022/09/20 01:13:04;;;;;;;0.00;0.00;;;;;;;;;;6243449;23;20024;-76
2022/09/20 01:15:31;;;;;;;0.00;0.00;;;;;;;;;;6244540;22;20076;-76
2022/09/20 01:18:00;;;;;;;0.00;0.00;;;;;;;;;;6245521;23;20079;-76
2022/09/20 01:20:28;;;;;;;0.00;0.00;;;;;;;;;;6243236;23;20084;-76
2022/09/20 01:23:07;;;;;;;0.00;0.00;;;;;;;;;;6245241;23;20006;-75
2022/09/20 01:25:49;;;;;;;0.38;0.38;;;;;;;;;;6244209;23;20031;-76
2022/09/20 01:28:16;;;;;;;0.82;0.82;;;;;;;;;;6246779;22;20011;-76
2022/09/20 01:31:01;;;;;;;0.00;0.00;;;;;;;;;;6245015;23;20008;-77
2022/09/20 01:33:33;;;;;;;0.20;0.20;;;;;;;;;;6244943;23;20035;-77
2022/09/20 01:36:02;;;;;;;0.00;0.00;;;;;;;;;;6245299;23;20091;-76
2022/09/20 01:38:44;;;;;;;0.00;0.00;;;;;;;;;;6245407;23;20008;-76
2022/09/20 01:41:21;;;;;;;0.00;0.00;;;;;;;;;;6244975;23;20079;-76
2022/09/20 01:43:48;;;;;;;0.00;0.00;;;;;;;;;;6243076;23;20008;-76
2022/09/20 01:46:31;;;;;;;2.63;2.55;;;;;;;;;;6245363;22;20008;-75
2022/09/20 01:49:07;;;;;;;0.00;0.00;;;;;;;;;;6242802;22;20054;-76
2022/09/20 01:51:36;;;;;;;0.00;0.00;;;;;;;;;;6244577;23;20479;-75
2022/09/20 01:54:04;;;;;;;0.00;0.00;;;;;;;;;;6245514;23;20351;-76
2022/09/20 01:56:30;;;;;;;3.40;3.20;;;;;;;;;;6243006;23;20078;-77
2022/09/20 01:59:15;;;;;;;0.00;0.00;;;;;;;;;;6245523;22;20012;-78
2022/09/20 02:02:06;;;;;;;0.25;0.25;;;;;;;;;;6245486;23;19996;-73
2022/09/20 02:04:51;;;;;;;0.00;0.00;;;;;;;;;;6243197;23;20001;-74
2022/09/20 02:07:18;;;;;;;0.00;0.00;;;;;;;;;;6243942;23;20001;-73
2022/09/20 02:09:55;;;;;;;0.00;0.00;;;;;;;;;;6246025;22;19996;-73
2022/09/20 02:12:40;;;;;;;0.00;0.00;;;;;;;;;;6246073;22;19996;-73
2022/09/20 02:15:10;;;;;;;0.00;0.00;;;;;;;;;;6242846;23;20107;-73
2022/09/20 02:17:45;;;;;;;6.60;6.30;;;;;;;;;;6245565;23;20000;-73
2022/09/20 02:20:32;;;;;;;0.00;0.00;;;;;;;;;;6245708;23;20024;-72
2022/09/20 02:23:07;;;;;;;0.00;0.00;;;;;;;;;;6245246;23;20003;-74
2022/09/20 02:25:46;;;;;;;31.80;28.40;;;;;;;;;;6243762;23;20061;-72
2022/09/20 02:28:21;;;;;;;0.00;0.00;;;;;;;;;;6245371;23;20028;-73
2022/09/20 02:31:06;;;;;;;0.00;0.00;;;;;;;;;;6244057;23;20078;-74
2022/09/20 02:33:47;;;;;;;0.00;0.00;;;;;;;;;;6242524;23;20083;-72
2022/09/20 02:36:23;;;;;;;0.00;0.00;;;;;;;;;;6244984;23;20420;-73
2022/09/20 02:39:08;;;;;;;0.00;0.00;;;;;;;;;;6244687;22;20007;-71
2022/09/20 02:41:50;;;;;;;0.00;0.00;;;;;;;;;;6243354;22;20004;-71
2022/09/20 02:44:22;;;;;;;0.00;0.00;;;;;;;;;;6242779;23;20028;-72
2022/09/20 02:47:14;;;;;;;0.00;0.00;;;;;;;;;;6244736;22;20001;-75
2022/09/20 02:49:41;;;;;;;0.03;0.03;;;;;;;;;;6197601;22;20007;-73
2022/09/20 02:52:20;;;;;;;1.35;1.02;;;;;;;;;;6242391;23;20001;-73
2022/09/20 02:54:53;;;;;;;0.00;0.00;;;;;;;;;;6243940;22;20004;-74
2022/09/20 02:57:40;;;;;;;0.00;0.00;;;;;;;;;;6244001;22;20000;-72
2022/09/20 03:00:09;;;;;;;0.00;0.00;;;;;;;;;;6243705;23;20062;-73
2022/09/20 03:03:02;;;;;;;0.43;0.30;;;;;;;;;;6241379;23;20000;-73
2022/09/20 03:05:43;;;;;;;0.00;0.00;;;;;;;;;;6239801;23;20057;-73
2022/09/20 03:08:09;;;;;;;0.00;0.00;;;;;;;;;;6238476;23;20008;-73
2022/09/20 03:10:36;;;;;;;0.00;0.00;;;;;;;;;;6241468;23;20030;-74
2022/09/20 03:13:16;;;;;;;0.47;0.47;;;;;;;;;;6240721;23;20031;-73
2022/09/20 03:15:42;;;;;;;2.60;2.50;;;;;;;;;;6242471;22;20012;-73
2022/09/20 03:18:11;;;;;;;0.30;0.30;;;;;;;;;;6244299;22;20000;-74
2022/09/20 03:20:50;;;;;;;0.85;0.85;;;;;;;;;;6240422;23;20012;-73
2022/09/20 03:23:35;;;;;;;0.30;0.30;;;;;;;;;;6243508;23;20028;-74
2022/09/20 03:26:14;;;;;;;0.20;0.20;;;;;;;;;;6243397;23;20483;-75
2022/09/20 03:28:42;;;;;;;0.22;0.22;;;;;;;;;;6242069;23;20016;-75
2022/09/20 03:31:15;;;;;;;1.00;1.00;;;;;;;;;;6245405;22;20008;-76
2022/09/20 03:33:51;;;;;;;0.00;0.00;;;;;;;;;;6244180;22;20012;-76
2022/09/20 03:36:27;;;;;;;0.30;0.30;;;;;;;;;;6244945;23;20075;-75
2022/09/20 03:39:12;;;;;;;0.75;0.65;;;;;;;;;;6243269;23;20125;-77
2022/09/20 03:41:41;;;;;;;0.05;0.05;;;;;;;;;;6242402;23;20087;-77
2022/09/20 03:44:20;;;;;;;0.93;0.93;;;;;;;;;;6242708;23;20027;-76
2022/09/20 03:46:47;;;;;;;0.47;0.47;;;;;;;;;;6243509;23;20093;-77
2022/09/20 03:49:19;;;;;;;10.02;5.47;;;;;;;;;;6240914;22;20382;-77
2022/09/20 03:51:46;;;;;;;0.17;0.17;;;;;;;;;;6243822;23;20486;-77
2022/09/20 03:54:31;;;;;;;1.08;1.08;;;;;;;;;;6240707;22;20092;-78
2022/09/20 03:56:57;;;;;;;1.85;1.75;;;;;;;;;;6239357;23;20019;-76
2022/09/20 03:59:24;;;;;;;1.00;0.57;;;;;;;;;;6240598;22;20023;-75
2022/09/20 04:01:50;;;;;;;0.00;0.00;;;;;;;;;;6242014;23;20028;-77
2022/09/20 04:04:19;;;;;;;1.60;1.55;;;;;;;;;;6239146;23;20512;-76
2022/09/20 04:06:58;;;;;;;0.00;0.00;;;;;;;;;;6240102;23;20059;-79
2022/09/20 04:09:43;;;;;;;0.25;0.25;;;;;;;;;;6242297;23;20011;-78
2022/09/20 04:12:29;;;;;;;5.65;2.35;;;;;;;;;;6241006;23;20018;-78
2022/09/20 04:15:09;;;;;;;0.00;0.00;;;;;;;;;;6241826;22;20012;-76
2022/09/20 04:17:35;;;;;;;3.63;2.92;;;;;;;;;;6242187;23;20030;-76
2022/09/20 04:20:20;;;;;;;10.90;3.78;;;;;;;;;;6242147;23;20011;-78
2022/09/20 04:22:50;;;;;;;0.85;0.85;;;;;;;;;;6238597;23;20000;-78
2022/09/20 04:25:26;;;;;;;2.13;2.03;;;;;;;;;;6238843;23;20004;-79
2022/09/20 04:28:31;;;;;;;1.20;1.20;;;;;;;;;;6236973;23;20008;-75
2022/09/20 04:31:03;;;;;;;1.52;0.65;;;;;;;;;;6117979;23;20033;-77
2022/09/20 04:33:31;;;;;;;0.00;0.00;;;;;;;;;;6117279;23;20010;-77
2022/09/20 04:38:53;;;;;;;0.65;0.65;;;;;;;;;;6238371;23;20078;-77
2022/09/20 04:41:34;;;;;;;0.20;0.20;;;;;;;;;;6241508;22;20346;-79
2022/09/20 04:44:01;;;;;;;0.30;0.30;;;;;;;;;;6242113;23;20091;-77
2022/09/20 04:46:56;;;;;;;0.00;0.00;;;;;;;;;;6242642;22;20085;-78
2022/09/20 04:49:41;;;;;;;1.23;1.23;;;;;;;;;;6240321;23;20067;-78
2022/09/20 04:52:26;;;;;;;2.55;2.40;;;;;;;;;;6241879;23;20008;-78
2022/09/20 04:55:11;;;;;;;0.20;0.15;;;;;;;;;;6242138;23;20028;-77
2022/09/20 04:57:53;;;;;;;0.30;0.30;;;;;;;;;;6243657;22;20081;-78
2022/09/20 05:00:21;;;;;;;19.63;8.82;;;;;;;;;;6244244;22;20020;-76
2022/09/20 05:03:21;;;;;;;3.92;2.65;;;;;;;;;;6242003;22;20004;-78
2022/09/20 05:06:14;;;;;;;10.20;2.58;;;;;;;;;;6243996;22;20015;-78
2022/09/20 05:08:56;;;;;;;0.00;0.00;;;;;;;;;;6241332;23;20451;-75
2022/09/20 05:11:38;;;;;;;0.25;0.25;;;;;;;;;;6240471;23;20038;-75
2022/09/20 05:14:23;;;;;;;3.30;0.95;;;;;;;;;;6243746;22;20008;-74
2022/09/20 05:17:09;;;;;;;3.45;3.17;;;;;;;;;;6240960;23;20008;-74
2022/09/20 05:19:42;;;;;;;2.28;2.08;;;;;;;;;;6240930;23;20394;-74
2022/09/20 05:22:32;;;;;;;2.28;2.17;;;;;;;;;;6242656;22;20000;-75
2022/09/20 05:25:05;;;;;;;0.00;0.00;;;;;;;;;;6241460;23;20005;-74
2022/09/20 05:27:50;;;;;;;1.00;1.00;;;;;;;;;;6239728;23;20023;-75
2022/09/20 05:30:17;;;;;;;3.58;1.90;;;;;;;;;;6240807;23;20000;-74
2022/09/20 05:33:06;;;;;;;9.75;7.28;;;;;;;;;;6241058;22;20417;-74
2022/09/20 05:35:53;;;;;;;0.22;0.22;;;;;;;;;;6225738;23;20035;-74
2022/09/20 05:38:28;;;;;;;2.45;1.05;;;;;;;;;;6240088;22;20004;-74
2022/09/20 05:41:04;;;;;;;0.00;0.00;;;;;;;;;;6239889;23;20504;-73
2022/09/20 05:43:32;;;;;;;0.00;0.00;;;;;;;;;;6239891;23;20030;-77
2022/09/20 05:46:21;;;;;;;6.15;5.75;;;;;;;;;;6240877;23;20011;-77
2022/09/20 05:49:00;;;;;;;1.10;0.30;;;;;;;;;;6242094;23;20000;-75
2022/09/20 05:51:34;;;;;;;0.00;0.00;;;;;;;;;;6236544;23;20053;-76
2022/09/20 05:54:19;;;;;;;2.53;1.48;;;;;;;;;;6241591;23;20079;-77
2022/09/20 05:56:46;;;;;;;3.05;0.30;;;;;;;;;;6240135;22;20008;-77
2022/09/20 05:59:22;;;;;;;0.00;0.00;;;;;;;;;;6239901;22;20104;-79
2022/09/20 06:02:08;;;;;;;0.00;0.00;;;;;;;;;;6239182;23;20004;-77
2022/09/20 06:04:55;;;;;;;2.83;2.08;;;;;;;;;;6243218;22;20015;-78
2022/09/20 06:07:27;;;;;;;2.20;0.40;;;;;;;;;;6242954;22;19996;-78
2022/09/20 06:10:09;;;;;;;0.10;0.10;;;;;;;;;;6241092;23;20094;-79
2022/09/20 06:12:42;;;;;;;0.00;0.00;;;;;;;;;;6239506;23;20012;-77
2022/09/20 06:15:15;;;;;;;1.10;1.10;;;;;;;;;;6242158;22;20091;-77
2022/09/20 06:17:45;;;;;;;1.23;0.80;;;;;;;;;;6243807;22;20071;-77
2022/09/20 06:20:30;;;;;;;3.90;2.97;;;;;;;;;;6241363;23;20043;-77
2022/09/20 06:23:00;;;;;;;6.88;2.78;;;;;;;;;;6242106;23;20004;-77
2022/09/20 06:25:30;;;;;;;2.10;1.55;;;;;;;;;;6242278;23;20377;-77
2022/09/20 06:28:14;;;;;;;0.47;0.40;;;;;;;;;;6242726;22;20004;-78
2022/09/20 06:30:44;;;;;;;2.45;2.25;;;;;;;;;;6240560;23;20408;-78
2022/09/20 06:33:17;;;;;;;2.35;2.17;;;;;;;;;;6243239;23;20028;-78
2022/09/20 06:35:52;;;;;;;3.50;3.30;;;;;;;;;;6243752;23;20375;-77
2022/09/20 06:41:27;;;;;;;0.25;0.25;;;;;;;;;;6243838;23;20043;-77
2022/09/20 06:43:56;;;;;;;2.88;2.75;;;;;;;;;;6243231;22;20325;-76
2022/09/20 06:46:23;;;;;;;1.90;0.73;;;;;;;;;;6242198;22;20054;-75
2022/09/20 06:48:50;;;;;;;0.82;0.57;;;;;;;;;;6244746;23;20007;-76
2022/09/20 06:51:16;;;;;;;0.22;0.22;;;;;;;;;;6241755;23;20008;-76
2022/09/20 06:53:42;;;;;;;0.00;0.00;;;;;;;;;;6242399;23;20075;-76
2022/09/20 06:56:13;;;;;;;2.55;0.63;;;;;;;;;;6242154;23;20035;-77
2022/09/20 06:58:39;;;;;;;6.00;2.78;;;;;;;;;;6240730;22;20011;-76
2022/09/20 07:01:05;;;;;;;2.30;0.93;;;;;;;;;;6242173;23;20450;-75
2022/09/20 07:03:32;;;;;;;0.32;0.00;;;;;;;;;;6240894;23;20340;-75
2022/09/20 07:06:03;;;;;;;0.00;0.00;;;;;;;;;;6243657;22;20007;-76
2022/09/20 07:08:29;;;;;;;0.00;0.00;;;;;;;;;;6242640;23;20008;-77
2022/09/20 07:10:56;;;;;;;3.67;1.63;;;;;;;;;;6239085;23;20084;-78
2022/09/20 07:13:22;;;;;;;1.65;0.50;;;;;;;;;;6241959;22;20012;-77
2022/09/20 07:15:50;;;;;;;0.32;0.30;;;;;;;;;;6241804;22;20083;-75
2022/09/20 07:18:16;;;;;;;0.08;0.08;;;;;;;;;;6243240;23;20004;-78
2022/09/20 07:20:43;;;;;;;0.20;0.20;;;;;;;;;;6242830;23;20012;-78
2022/09/20 07:23:09;;;;;;;0.00;0.00;;;;;;;;;;6240587;23;20004;-76
2022/09/20 07:25:36;;;;;;;0.00;0.00;;;;;;;;;;6241762;23;20036;-76
2022/09/20 07:28:03;;;;;;;28.73;1.33;;;;;;;;;;6243966;23;20016;-78
2022/09/20 07:30:29;;;;;;;2.00;1.98;;;;;;;;;;6243974;22;20008;-78
2022/09/20 07:32:55;;;;;;;0.10;0.10;;;;;;;;;;6242462;23;20104;-79
2022/09/20 07:35:22;;;;;;;0.45;0.40;;;;;;;;;;6244261;23;20031;-78
2022/09/20 07:37:48;;;;;;;2.33;1.83;;;;;;;;;;6244560;22;20062;-79
2022/09/20 07:40:15;;;;;;;0.08;0.08;;;;;;;;;;6248790;23;20000;-80
2022/09/20 07:42:41;;;;;;;0.77;0.77;;;;;;;;;;6248136;23;20004;-81
2022/09/20 07:45:08;;;;;;;0.00;0.00;;;;;;;;;;6250583;22;20008;-80
2022/09/20 07:47:34;;;;;;;0.00;0.00;;;;;;;;;;6245227;22;20012;-77
2022/09/20 07:50:01;;;;;;;0.85;0.85;;;;;;;;;;6245578;23;20015;-80
2022/09/20 07:52:28;;;;;;;0.00;0.00;;;;;;;;;;6251895;23;20111;-79
2022/09/20 07:54:55;;;;;;;0.00;0.00;;;;;;;;;;6249419;22;20024;-78
2022/09/20 07:57:21;;;;;;;0.22;0.22;;;;;;;;;;6245752;22;19996;-79
2022/09/20 07:59:47;;;;;;;0.20;0.20;;;;;;;;;;6242284;23;20352;-78
2022/09/20 08:02:15;;;;;;;0.13;0.05;;;;;;;;;;6238032;22;20000;-76
2022/09/20 08:04:42;;;;;;;1.65;1.08;;;;;;;;;;6241201;23;20409;-77
2022/09/20 08:07:09;;;;;;;2.70;2.60;;;;;;;;;;6240805;22;20004;-78
2022/09/20 08:09:35;;;;;;;17.52;8.57;;;;;;;;;;6238631;23;20015;-77
2022/09/20 08:12:02;;;;;;;1.17;1.08;;;;;;;;;;6240763;23;20031;-76
2022/09/20 08:14:28;;;;;;;5.32;5.13;;;;;;;;;;6243958;23;20000;-78
2022/09/20 08:16:58;;;;;;;0.60;0.60;;;;;;;;;;6242388;23;20086;-76
2022/09/20 08:19:25;;;;;;;1.35;1.25;;;;;;;;;;6243731;22;20071;-78
2022/09/20 08:21:57;;;;;;;0.35;0.35;;;;;;;;;;6243894;22;20007;-77
2022/09/20 08:24:25;;;;;;;0.00;0.00;;;;;;;;;;6243701;23;20076;-75
2022/09/20 08:26:52;;;;;;;0.10;0.10;;;;;;;;;;6241006;23;20197;-77
2022/09/20 08:29:18;;;;;;;0.05;0.05;;;;;;;;;;6243531;22;20213;-76
2022/09/20 08:31:46;;;;;;;0.00;0.00;;;;;;;;;;6241623;23;20058;-76
2022/09/20 08:34:13;;;;;;;0.10;0.00;;;;;;;;;;6244525;22;20014;-76
2022/09/20 08:36:43;;;;;;;0.00;0.00;;;;;;;;;;6240360;23;20031;-75
2022/09/20 08:39:09;;;;;;;0.40;0.40;;;;;;;;;;6241214;22;20370;-74
2022/09/20 08:41:38;;;;;;;1.65;1.55;;;;;;;;;;6243031;22;20004;-77
2022/09/20 08:44:10;;;;;;;0.30;0.10;;;;;;;;;;6239650;23;20007;-75
2022/09/20 08:46:39;;;;;;;0.47;0.47;;;;;;;;;;6238987;23;20091;-74
2022/09/20 08:49:07;;;;;;;5.22;2.47;;;;;;;;;;6240318;23;20012;-74
2022/09/20 08:51:41;;;;;;;0.00;0.00;;;;;;;;;;6239964;23;20028;-75
2022/09/20 08:54:13;;;;;;;0.88;0.88;;;;;;;;;;6241609;23;20348;-75
2022/09/20 08:56:39;;;;;;;0.00;0.00;;;;;;;;;;6241926;22;20019;-75
2022/09/20 08:59:06;;;;;;;0.43;0.43;;;;;;;;;;6240905;22;20161;-75
2022/09/20 09:01:33;;;;;;;0.00;0.00;;;;;;;;;;6240107;23;20050;-75
2022/09/20 09:04:12;;;;;;;0.08;0.08;;;;;;;;;;6237584;22;19996;-74
2022/09/20 09:06:38;;;;;;;4.10;2.42;;;;;;;;;;6240465;22;20000;-74
2022/09/20 09:09:06;;;;;;;0.20;0.20;;;;;;;;;;6241992;23;20004;-74
2022/09/20 09:11:33;;;;;;;0.00;0.00;;;;;;;;;;6241393;23;20142;-73
2022/09/20 09:14:03;;;;;;;0.85;0.68;;;;;;;;;;6240945;23;20032;-74
2022/09/20 09:16:31;;;;;;;0.00;0.00;;;;;;;;;;6240384;22;20100;-74
2022/09/20 09:18:57;;;;;;;0.43;0.13;;;;;;;;;;6243020;22;20008;-74
2022/09/20 09:21:26;;;;;;;0.20;0.20;;;;;;;;;;6242992;22;20348;-79
2022/09/20 09:24:02;;;;;;;0.00;0.00;;;;;;;;;;6242199;22;20008;-78
2022/09/20 09:26:35;;;;;;;0.00;0.00;;;;;;;;;;6243850;22;20023;-77
2022/09/20 09:29:09;;;;;;;0.10;0.10;;;;;;;;;;6242357;22;20011;-78
2022/09/20 09:31:37;;;;;;;0.00;0.00;;;;;;;;;;6242874;22;20000;-76
2022/09/20 09:34:03;;;;;;;0.00;0.00;;;;;;;;;;6241534;22;20019;-71
2022/09/20 09:36:30;;;;;;;0.00;0.00;;;;;;;;;;6237822;23;20131;-73
2022/09/20 09:39:32;;;;;;;0.20;0.20;;;;;;;;;;6239902;23;20321;-72
2022/09/20 09:41:59;;;;;;;0.00;0.00;;;;;;;;;;6091557;23;20026;-72
2022/09/20 09:44:34;;;;;;;0.00;0.00;;;;;;;;;;6218737;22;20443;-72
2022/09/20 09:47:01;;;;;;;0.00;0.00;;;;;;;;;;6242677;23;20067;-72
2022/09/20 09:49:34;;;;;;;0.10;0.10;;;;;;;;;;6240381;23;20012;-73
2022/09/20 09:52:23;;;;;;;0.00;0.00;;;;;;;;;;6243415;22;20004;-73
2022/09/20 09:54:51;;;;;;;0.32;0.32;;;;;;;;;;6242356;22;20000;-75
2022/09/20 09:57:36;;;;;;;0.20;0.20;;;;;;;;;;6243511;22;20053;-75
2022/09/20 10:00:20;;;;;;;0.08;0.08;;;;;;;;;;6240175;23;20347;-72
2022/09/20 10:02:52;;;;;;;9.52;4.45;;;;;;;;;;6241056;22;20004;-74
2022/09/20 10:05:23;;;;;;;0.68;0.68;;;;;;;;;;6242517;22;19996;-73
2022/09/20 10:07:53;;;;;;;0.00;0.00;;;;;;;;;;6242901;23;20005;-71
2022/09/20 10:10:27;;;;;;;0.00;0.00;;;;;;;;;;6243021;22;20007;-74
2022/09/20 10:13:05;;;;;;;1.02;0.98;;;;;;;;;;6244985;23;20003;-72
2022/09/20 10:15:45;;;;;;;0.03;0.03;;;;;;;;;;6240994;23;19997;-77
2022/09/20 10:18:32;;;;;;;0.13;0.13;;;;;;;;;;6244237;23;20320;-74
2022/09/20 10:21:17;;;;;;;0.00;0.00;;;;;;;;;;6214956;22;20008;-75
2022/09/20 10:23:49;;;;;;;0.00;0.00;;;;;;;;;;6243502;22;20011;-74
2022/09/20 10:26:24;;;;;;;0.00;0.00;;;;;;;;;;6243049;23;20007;-73
2022/09/20 10:28:51;;;;;;;0.63;0.63;;;;;;;;;;6243588;22;20015;-72
2022/09/20 10:31:33;;;;;;;0.00;0.00;;;;;;;;;;6242368;23;20019;-73
2022/09/20 10:34:18;;;;;;;0.00;0.00;;;;;;;;;;6245348;22;20012;-73
2022/09/20 10:36:51;;;;;;;0.00;0.00;;;;;;;;;;6243273;22;20039;-74
2022/09/20 10:39:27;;;;;;;0.68;0.20;;;;;;;;;;6242349;23;20187;-70
2022/09/20 10:44:48;;;;;;;1.02;0.68;;;;;;;;;;6243406;23;20383;-72
2022/09/20 10:47:18;;;;;;;0.17;0.13;;;;;;;;;;6241239;22;20020;-72
2022/09/20 10:50:01;;;;;;;3.20;0.65;;;;;;;;;;6245637;22;20413;-72
2022/09/20 10:52:37;;;;;;;0.00;0.00;;;;;;;;;;6244778;22;20004;-72
2022/09/20 10:55:24;;;;;;;0.10;0.10;;;;;;;;;;6243030;22;20008;-72
2022/09/20 10:57:50;;;;;;;0.15;0.15;;;;;;;;;;6165850;22;20034;-72
2022/09/20 11:00:22;;;;;;;0.10;0.10;;;;;;;;;;6241850;23;20039;-71
2022/09/20 11:02:55;;;;;;;0.05;0.05;;;;;;;;;;6245056;22;20083;-73
2022/09/20 11:05:30;;;;;;;0.00;0.00;;;;;;;;;;6243330;23;20087;-72
2022/09/20 11:08:06;;;;;;;0.00;0.00;;;;;;;;;;6243772;22;20000;-72
2022/09/20 11:10:35;;;;;;;0.00;0.00;;;;;;;;;;6241094;22;20012;-72
2022/09/20 11:13:04;;;;;;;0.00;0.00;;;;;;;;;;6241123;23;20091;-72
2022/09/20 11:15:37;;;;;;;0.00;0.00;;;;;;;;;;6242119;22;20081;-72
2022/09/20 11:18:12;;;;;;;0.90;0.90;;;;;;;;;;6241853;23;20074;-71
2022/09/20 11:20:45;;;;;;;0.20;0.20;;;;;;;;;;6239246;23;20091;-70
2022/09/20 11:23:15;;;;;;;0.00;0.00;;;;;;;;;;6242041;23;20007;-73
2022/09/20 11:25:50;;;;;;;0.00;0.00;;;;;;;;;;6240548;23;20000;-73
2022/09/20 11:28:19;;;;;;;0.00;0.00;;;;;;;;;;6239785;22;20081;-76
2022/09/20 11:31:04;;;;;;;0.00;0.00;;;;;;;;;;6241660;22;20428;-76
2022/09/20 11:33:37;;;;;;;11.27;10.63;;;;;;;;;;6242981;23;20039;-76
2022/09/20 11:36:06;;;;;;;0.00;0.00;;;;;;;;;;6240398;23;20078;-78
2022/09/20 11:38:51;;;;;;;10.70;2.80;;;;;;;;;;6250300;23;20059;-77
2022/09/20 11:41:24;;;;;;;0.50;0.50;;;;;;;;;;6243990;22;20027;-75
2022/09/20 11:43:52;;;;;;;0.25;0.25;;;;;;;;;;6239634;22;19996;-75
2022/09/20 11:46:29;;;;;;;0.00;0.00;;;;;;;;;;6241464;23;20024;-75
2022/09/20 11:49:16;;;;;;;0.90;0.90;;;;;;;;;;6239655;22;20703;-75
2022/09/20 11:51:52;;;;;;;0.17;0.17;;;;;;;;;;6239470;22;20070;-75
2022/09/20 11:54:19;;;;;;;0.43;0.43;;;;;;;;;;6238798;23;20012;-74
2022/09/20 11:56:55;;;;;;;3.90;3.70;;;;;;;;;;6240446;23;20060;-76
2022/09/20 11:59:30;;;;;;;0.00;0.00;;;;;;;;;;6241451;22;20008;-76
2022/09/20 12:01:59;;;;;;;0.05;0.05;;;;;;;;;;6242727;22;19996;-76
2022/09/20 12:04:27;;;;;;;0.20;0.20;;;;;;;;;;6240729;22;20031;-80
2022/09/20 12:07:00;;;;;;;0.00;0.00;;;;;;;;;;6244904;22;20000;-79
2022/09/20 12:09:45;;;;;;;0.10;0.10;;;;;;;;;;6240376;23;20039;-79
2022/09/20 12:12:27;;;;;;;0.00;0.00;;;;;;;;;;6243382;23;20130;-78
2022/09/20 12:14:55;;;;;;;0.05;0.05;;;;;;;;;;6242284;23;20047;-78
2022/09/20 12:17:40;;;;;;;0.00;0.00;;;;;;;;;;6244584;22;20546;-77
2022/09/20 12:20:25;;;;;;;0.00;0.00;;;;;;;;;;6241591;23;20031;-77
2022/09/20 12:22:51;;;;;;;0.03;0.03;;;;;;;;;;6243438;23;19996;-76
2022/09/20 12:25:34;;;;;;;0.00;0.00;;;;;;;;;;6242490;23;20027;-76
2022/09/20 12:28:00;;;;;;;0.00;0.00;;;;;;;;;;6244471;23;20413;-79
2022/09/20 12:30:31;;;;;;;0.00;0.00;;;;;;;;;;6242671;23;20332;-78
2022/09/20 12:33:01;;;;;;;0.10;0.10;;;;;;;;;;6241394;22;20369;-79
2022/09/20 12:35:43;;;;;;;0.03;0.03;;;;;;;;;;6242873;22;19997;-76
2022/09/20 12:38:21;;;;;;;0.00;0.00;;;;;;;;;;6239586;23;20012;-77
2022/09/20 12:41:03;;;;;;;0.52;0.52;;;;;;;;;;6240373;22;20000;-76
2022/09/20 12:43:30;;;;;;;0.00;0.00;;;;;;;;;;6241132;23;20008;-76
2022/09/20 12:45:58;;;;;;;1.45;1.35;;;;;;;;;;6241091;23;20000;-77
2022/09/20 12:48:24;;;;;;;0.00;0.00;;;;;;;;;;6240358;23;20012;-76
2022/09/20 12:54:02;;;;;;;0.00;0.00;;;;;;;;;;6244722;23;20019;-75
2022/09/20 12:56:29;;;;;;;0.10;0.10;;;;;;;;;;6242072;23;20089;-78
2022/09/20 12:58:56;;;;;;;0.43;0.43;;;;;;;;;;6241087;22;20020;-77
2022/09/20 13:01:25;;;;;;;0.00;0.00;;;;;;;;;;6244149;22;20016;-77
2022/09/20 13:03:51;;;;;;;2.60;1.27;;;;;;;;;;6244662;22;20051;-77
2022/09/20 13:06:18;;;;;;;0.20;0.20;;;;;;;;;;6241982;23;20008;-76
2022/09/20 13:08:46;;;;;;;0.03;0.03;;;;;;;;;;6244324;22;20099;-77
2022/09/20 13:11:31;;;;;;;0.00;0.00;;;;;;;;;;6242527;23;20012;-77
2022/09/20 13:14:00;;;;;;;0.00;0.00;;;;;;;;;;6242882;23;20007;-77
2022/09/20 13:16:46;;;;;;;0.77;0.55;;;;;;;;;;6216828;23;20012;-77
2022/09/20 13:19:18;;;;;;;0.22;0.22;;;;;;;;;;6243297;23;20016;-77
2022/09/20 13:21:57;;;;;;;0.15;0.15;;;;;;;;;;6242699;22;20149;-77
2022/09/20 13:24:25;;;;;;;0.00;0.00;;;;;;;;;;6243338;23;20401;-76
2022/09/20 13:26:53;;;;;;;0.00;0.00;;;;;;;;;;6244285;23;20313;-76
2022/09/20 13:29:29;;;;;;;0.73;0.73;;;;;;;;;;6247026;22;20324;-76
2022/09/20 13:31:55;;;;;;;3.40;1.45;;;;;;;;;;6244964;23;20007;-77
2022/09/20 13:34:25;;;;;;;0.45;0.45;;;;;;;;;;6245390;22;20004;-77
2022/09/20 13:36:53;;;;;;;0.03;0.03;;;;;;;;;;6245935;22;20012;-77
2022/09/20 13:39:49;;;;;;;0.00;0.00;;;;;;;;;;6245793;22;20004;-77
2022/09/20 13:42:18;;;;;;;0.32;0.32;;;;;;;;;;6219641;23;20020;-77
2022/09/20 13:44:45;;;;;;;0.00;0.00;;;;;;;;;;6243158;23;20426;-77
2022/09/20 13:47:22;;;;;;;1.42;1.35;;;;;;;;;;6246609;22;20000;-78
2022/09/20 13:49:49;;;;;;;0.00;0.00;;;;;;;;;;6245560;23;20030;-77
2022/09/20 13:52:33;;;;;;;0.63;0.63;;;;;;;;;;6246405;22;20054;-77
2022/09/20 13:55:00;;;;;;;0.00;0.00;;;;;;;;;;6244325;23;20004;-77
2022/09/20 13:57:27;;;;;;;1.98;1.90;;;;;;;;;;6244791;22;20091;-77
2022/09/20 13:59:54;;;;;;;0.63;0.63;;;;;;;;;;6245656;22;20020;-77
2022/09/20 14:02:30;;;;;;;0.55;0.55;;;;;;;;;;6245710;22;20008;-76
2022/09/20 14:04:59;;;;;;;0.00;0.00;;;;;;;;;;6244741;23;20000;-77
2022/09/20 14:07:27;;;;;;;5.38;1.33;;;;;;;;;;6246027;22;20392;-78
2022/09/20 14:09:54;;;;;;;0.00;0.00;;;;;;;;;;6243943;23;20023;-77
2022/09/20 14:12:21;;;;;;;0.00;0.00;;;;;;;;;;6245405;22;20000;-77
2022/09/20 14:14:47;;;;;;;0.00;0.00;;;;;;;;;;6242696;23;20078;-78
2022/09/20 14:17:17;;;;;;;3.63;3.33;;;;;;;;;;6244178;23;20119;-76
2022/09/20 14:19:46;;;;;;;0.00;0.00;;;;;;;;;;6245889;22;20054;-77
2022/09/20 14:22:19;;;;;;;0.22;0.22;;;;;;;;;;6242596;23;20012;-77
2022/09/20 14:24:58;;;;;;;0.00;0.00;;;;;;;;;;6241838;23;20051;-77
2022/09/20 14:27:24;;;;;;;0.00;0.00;;;;;;;;;;6246693;22;20004;-76
2022/09/20 14:29:51;;;;;;;0.00;0.00;;;;;;;;;;6245358;23;20011;-77
2022/09/20 14:32:18;;;;;;;0.10;0.10;;;;;;;;;;6243930;23;20004;-77
2022/09/20 14:34:56;;;;;;;0.00;0.00;;;;;;;;;;6244662;23;20000;-76
2022/09/20 14:37:29;;;;;;;0.75;0.75;;;;;;;;;;6244559;23;20098;-76
2022/09/20 14:40:03;;;;;;;0.10;0.10;;;;;;;;;;6245798;22;20058;-76
2022/09/20 14:42:40;;;;;;;0.10;0.10;;;;;;;;;;6244810;23;20336;-77
2022/09/20 14:45:06;;;;;;;0.00;0.00;;;;;;;;;;6246235;23;20054;-78
2022/09/20 14:47:37;;;;;;;0.00;0.00;;;;;;;;;;6245591;23;20014;-77
2022/09/20 14:50:19;;;;;;;0.05;0.05;;;;;;;;;;6246088;22;20376;-76
2022/09/20 14:52:46;;;;;;;1.25;0.55;;;;;;;;;;6244136;23;20072;-77
2022/09/20 14:55:12;;;;;;;0.03;0.03;;;;;;;;;;6245644;22;20034;-77
2022/09/20 14:57:41;;;;;;;0.20;0.20;;;;;;;;;;6245354;22;20058;-77
2022/09/20 15:00:14;;;;;;;0.55;0.43;;;;;;;;;;6242736;23;20016;-76
2022/09/20 15:02:42;;;;;;;0.00;0.00;;;;;;;;;;6244777;22;20000;-75
2022/09/20 15:05:16;;;;;;;0.00;0.00;;;;;;;;;;6245502;23;19996;-76
2022/09/20 15:07:44;;;;;;;1.00;0.40;;;;;;;;;;6244147;23;20008;-76
2022/09/20 15:10:14;;;;;;;1.02;1.02;;;;;;;;;;6245199;22;20008;-76
2022/09/20 15:12:41;;;;;;;0.00;0.00;;;;;;;;;;6246573;22;20000;-76
2022/09/20 15:15:13;;;;;;;0.00;0.00;;;;;;;;;;6246591;22;20010;-76
2022/09/20 15:17:41;;;;;;;0.00;0.00;;;;;;;;;;6245924;22;20336;-76
2022/09/20 15:20:12;;;;;;;0.65;0.65;;;;;;;;;;6244499;23;20008;-76
2022/09/20 15:22:40;;;;;;;0.15;0.15;;;;;;;;;;6246422;23;20063;-76
2022/09/20 15:25:06;;;;;;;0.00;0.00;;;;;;;;;;6246179;22;20046;-77
2022/09/20 15:27:32;;;;;;;0.00;0.00;;;;;;;;;;6246062;23;20365;-79
2022/09/20 15:29:59;;;;;;;0.00;0.00;;;;;;;;;;6245709;23;20000;-77